sensor_id;sensor_type;location;lat;lon;timestamp;temperature;humidity
76759;DHT22;65701;45.588;5.186;2024-03-02T17:51:33;14.16;52.26
76759;DHT22;65701;45.588;5.186;2024-03-02T17:54:00;14.16;52.37
76759;DHT22;65701;45.588;5.186;2024-03-02T17:56:25;14.16;52.58
76759;DHT22;65701;45.588;5.186;2024-03-02T17:58:50;14.12;52.82
76759;DHT22;65701;45.588;5.186;2024-03-02T18:01:16;14.07;52.97
76759;DHT22;65701;45.588;5.186;2024-03-02T18:03:42;14.07;52.98
76759;DHT22;65701;45.588;5.186;2024-03-02T18:06:07;14.02;52.94
76759;DHT22;65701;45.588;5.186;2024-03-02T18:08:34;14.02;52.89
76759;DHT22;65701;45.588;5.186;2024-03-02T18:11:00;13.97;53.01
76759;DHT22;65701;45.588;5.186;2024-03-02T18:13:25;13.97;53.07
76759;DHT22;65701;45.588;5.186;2024-03-02T18:15:51;13.91;53.04
76759;DHT22;65701;45.588;5.186;2024-03-02T18:18:16;13.86;53.07
76759;DHT22;65701;45.588;5.186;2024-03-02T18:20:42;13.86;53.24
76759;DHT22;65701;45.588;5.186;2024-03-02T18:23:07;13.80;53.25
76759;DHT22;65701;45.588;5.186;2024-03-02T18:25:33;13.79;53.47
76759;DHT22;65701;45.588;5.186;2024-03-02T18:27:59;13.79;53.45
76759;DHT22;65701;45.588;5.186;2024-03-02T18:30:24;13.73;53.44
76759;DHT22;65701;45.588;5.186;2024-03-02T18:32:50;13.70;53.50
76759;DHT22;65701;45.588;5.186;2024-03-02T18:35:15;13.72;53.54
76759;DHT22;65701;45.588;5.186;2024-03-02T18:37:43;13.76;53.53
76759;DHT22;65701;45.588;5.186;2024-03-02T18:40:10;13.79;53.43
76759;DHT22;65701;45.588;5.186;2024-03-02T18:42:36;13.80;53.43
76759;DHT22;65701;45.588;5.186;2024-03-02T18:45:02;13.76;53.45
76759;DHT22;65701;45.588;5.186;2024-03-02T18:47:33;13.78;53.41
76759;DHT22;65701;45.588;5.186;2024-03-02T18:50:00;13.78;53.21
76759;DHT22;65701;45.588;5.186;2024-03-02T18:52:28;13.75;53.09
76759;DHT22;65701;45.588;5.186;2024-03-02T18:54:54;13.70;52.91
76759;DHT22;65701;45.588;5.186;2024-03-02T18:57:19;13.68;52.90
76759;DHT22;65701;45.588;5.186;2024-03-02T18:59:45;13.69;52.92
76759;DHT22;65701;45.588;5.186;2024-03-02T19:02:11;13.68;52.79
76759;DHT22;65701;45.588;5.186;2024-03-02T19:04:37;13.63;52.51
76759;DHT22;65701;45.588;5.186;2024-03-02T19:07:03;13.66;52.41
76759;DHT22;65701;45.588;5.186;2024-03-02T19:09:30;13.66;52.40
76759;DHT22;65701;45.588;5.186;2024-03-02T19:11:55;13.62;52.47
76759;DHT22;65701;45.588;5.186;2024-03-02T19:14:22;13.62;52.30
76759;DHT22;65701;45.588;5.186;2024-03-02T19:16:49;13.62;52.26
76759;DHT22;65701;45.588;5.186;2024-03-02T19:19:19;13.62;52.12
76759;DHT22;65701;45.588;5.186;2024-03-02T19:21:44;13.62;51.97
76759;DHT22;65701;45.588;5.186;2024-03-02T19:24:11;13.62;52.04
76759;DHT22;65701;45.588;5.186;2024-03-02T19:26:36;13.66;52.15
76759;DHT22;65701;45.588;5.186;2024-03-02T19:29:02;13.63;52.18
76759;DHT22;65701;45.588;5.186;2024-03-02T19:31:54;13.59;52.09
76759;DHT22;65701;45.588;5.186;2024-03-02T19:34:56;13.57;52.10
76759;DHT22;65701;45.588;5.186;2024-03-02T19:37:33;13.57;52.26
76759;DHT22;65701;45.588;5.186;2024-03-02T19:40:01;13.57;52.49
76759;DHT22;65701;45.588;5.186;2024-03-02T19:42:27;13.54;52.61
76759;DHT22;65701;45.588;5.186;2024-03-02T19:44:55;13.50;52.74
76759;DHT22;65701;45.588;5.186;2024-03-02T19:47:26;13.50;52.67
76759;DHT22;65701;45.588;5.186;2024-03-02T19:49:59;13.48;52.56
76759;DHT22;65701;45.588;5.186;2024-03-02T19:52:25;13.50;52.40
76759;DHT22;65701;45.588;5.186;2024-03-02T19:54:53;13.48;52.24
76759;DHT22;65701;45.588;5.186;2024-03-02T20:00:17;13.52;51.93
76759;DHT22;65701;45.588;5.186;2024-03-02T20:02:57;13.51;51.84
76759;DHT22;65701;45.588;5.186;2024-03-02T20:05:24;13.55;51.79
76759;DHT22;65701;45.588;5.186;2024-03-02T20:07:51;13.50;51.68
76759;DHT22;65701;45.588;5.186;2024-03-02T20:10:20;13.48;52.16
76759;DHT22;65701;45.588;5.186;2024-03-02T20:27:03;13.30;52.56
76759;DHT22;65701;45.588;5.186;2024-03-02T20:33:23;13.31;52.12
76759;DHT22;65701;45.588;5.186;2024-03-02T20:36:15;13.30;52.22
76759;DHT22;65701;45.588;5.186;2024-03-02T20:39:14;13.31;52.18
76759;DHT22;65701;45.588;5.186;2024-03-02T20:55:51;13.23;51.87
76759;DHT22;65701;45.588;5.186;2024-03-02T21:02:04;13.21;52.06
76759;DHT22;65701;45.588;5.186;2024-03-02T21:04:38;13.21;52.12
76759;DHT22;65701;45.588;5.186;2024-03-02T21:07:12;13.23;52.35
76759;DHT22;65701;45.588;5.186;2024-03-02T21:09:45;13.14;52.41
76759;DHT22;65701;45.588;5.186;2024-03-02T21:12:22;13.20;52.52
76759;DHT22;65701;45.588;5.186;2024-03-02T21:29:05;12.92;54.88
76759;DHT22;65701;45.588;5.186;2024-03-02T22:09:47;12.51;59.30
76759;DHT22;65701;45.588;5.186;2024-03-02T22:15:52;12.45;59.66
76759;DHT22;65701;45.588;5.186;2024-03-02T22:18:23;12.38;59.95
76759;DHT22;65701;45.588;5.186;2024-03-02T22:23:24;12.37;61.08
76759;DHT22;65701;45.588;5.186;2024-03-02T22:25:49;12.32;61.58
76759;DHT22;65701;45.588;5.186;2024-03-02T22:28:15;12.25;62.09
76759;DHT22;65701;45.588;5.186;2024-03-02T22:30:40;12.12;62.80
76759;DHT22;65701;45.588;5.186;2024-03-02T22:33:06;12.06;63.30
76759;DHT22;65701;45.588;5.186;2024-03-02T22:35:32;12.01;63.31
76759;DHT22;65701;45.588;5.186;2024-03-02T22:37:57;11.98;63.32
76759;DHT22;65701;45.588;5.186;2024-03-02T22:40:22;11.97;63.34
76759;DHT22;65701;45.588;5.186;2024-03-02T22:42:50;12.00;63.32
76759;DHT22;65701;45.588;5.186;2024-03-02T22:45:15;11.98;63.27
76759;DHT22;65701;45.588;5.186;2024-03-02T22:47:41;11.97;63.30
76759;DHT22;65701;45.588;5.186;2024-03-02T22:50:06;11.97;63.41
76759;DHT22;65701;45.588;5.186;2024-03-02T22:52:32;11.97;63.40
76759;DHT22;65701;45.588;5.186;2024-03-02T22:54:57;11.96;63.38
76759;DHT22;65701;45.588;5.186;2024-03-02T22:57:23;11.94;63.26
76759;DHT22;65701;45.588;5.186;2024-03-02T22:59:49;11.94;63.31
76759;DHT22;65701;45.588;5.186;2024-03-02T23:02:15;11.94;63.46
76759;DHT22;65701;45.588;5.186;2024-03-02T23:04:45;11.94;63.48
76759;DHT22;65701;45.588;5.186;2024-03-02T23:07:12;11.93;63.51
76759;DHT22;65701;45.588;5.186;2024-03-02T23:09:38;11.91;63.43
76759;DHT22;65701;45.588;5.186;2024-03-02T23:12:04;11.90;63.31
76759;DHT22;65701;45.588;5.186;2024-03-02T23:14:29;11.90;63.18
76759;DHT22;65701;45.588;5.186;2024-03-02T23:16:55;11.94;63.00
76759;DHT22;65701;45.588;5.186;2024-03-02T23:19:20;11.91;62.88
76759;DHT22;65701;45.588;5.186;2024-03-02T23:21:48;11.91;62.80
76759;DHT22;65701;45.588;5.186;2024-03-02T23:24:14;11.91;62.75
76759;DHT22;65701;45.588;5.186;2024-03-02T23:26:39;11.90;62.63
76759;DHT22;65701;45.588;5.186;2024-03-02T23:29:04;11.90;62.49
76759;DHT22;65701;45.588;5.186;2024-03-02T23:31:30;11.96;62.43
76759;DHT22;65701;45.588;5.186;2024-03-02T23:33:56;11.94;62.28
